Time;durP1;ratioP1;P1;durP2;ratioP2;P2;SDS_P1;SDS_P2;PMS_P1;PMS_P2;Temp;Humidity;BMP_temperature;BMP_pressure;BME280_temperature;BME280_humidity;BME280_pressure;Samples;Min_cycle;Max_cycle;Signal;HPM_P1;HPM_P2
2023/12/07 00:00:22;;;;;;;55.42;25.02;;;;;;;;;;2085383;28;20102;-76
2023/12/07 00:01:43;;;;;;;43.72;22.13;;;;;;;;;;2089198;28;20025;-76
2023/12/07 00:03:06;;;;;;;50.05;24.75;;;;;;;;;;2089549;28;20025;-76
2023/12/07 00:04:27;;;;;;;45.53;21.80;;;;;;;;;;2085284;28;20029;-76
2023/12/07 00:05:48;;;;;;;43.47;22.95;;;;;;;;;;2083853;28;20048;-76
2023/12/07 00:07:09;;;;;;;40.33;20.02;;;;;;;;;;2086268;28;20400;-76
2023/12/07 00:08:30;;;;;;;46.45;20.92;;;;;;;;;;2089949;28;20044;-76
2023/12/07 00:09:51;;;;;;;36.50;20.40;;;;;;;;;;2083775;28;20037;-76
2023/12/07 00:11:12;;;;;;;31.73;18.77;;;;;;;;;;2089981;28;20435;-75
2023/12/07 00:12:33;;;;;;;26.98;18.92;;;;;;;;;;2096524;28;20035;-75
2023/12/07 00:13:54;;;;;;;32.67;19.55;;;;;;;;;;2080380;28;20032;-76
2023/12/07 00:15:15;;;;;;;32.95;19.75;;;;;;;;;;2078683;28;20420;-76
2023/12/07 00:16:36;;;;;;;29.08;19.75;;;;;;;;;;2082377;28;20021;-76
2023/12/07 00:17:57;;;;;;;28.10;18.63;;;;;;;;;;2080547;28;20034;-76
2023/12/07 00:19:18;;;;;;;26.88;17.95;;;;;;;;;;2077553;28;20084;-76
2023/12/07 00:20:39;;;;;;;29.42;18.60;;;;;;;;;;2086309;28;20045;-75
2023/12/07 00:22:00;;;;;;;25.55;18.45;;;;;;;;;;2085546;28;20406;-76
2023/12/07 00:23:21;;;;;;;31.70;20.70;;;;;;;;;;2081714;28;20037;-76
2023/12/07 00:24:42;;;;;;;29.90;19.48;;;;;;;;;;2081868;28;20098;-76
2023/12/07 00:26:03;;;;;;;50.67;21.83;;;;;;;;;;2084011;28;20037;-74
2023/12/07 00:27:24;;;;;;;35.72;21.35;;;;;;;;;;2072862;28;20080;-76
2023/12/07 00:28:45;;;;;;;41.50;21.52;;;;;;;;;;2071505;28;20541;-75
2023/12/07 00:30:06;;;;;;;40.67;22.52;;;;;;;;;;2080112;28;20045;-76
2023/12/07 00:31:27;;;;;;;37.60;21.30;;;;;;;;;;2083904;28;20102;-76
2023/12/07 00:32:48;;;;;;;35.40;21.70;;;;;;;;;;2081990;28;20091;-76
2023/12/07 00:34:09;;;;;;;39.83;22.80;;;;;;;;;;2075800;28;20096;-76
2023/12/07 00:35:30;;;;;;;35.40;20.58;;;;;;;;;;2074898;28;20029;-76
2023/12/07 00:36:51;;;;;;;34.28;21.40;;;;;;;;;;2072148;28;20049;-75
2023/12/07 00:38:12;;;;;;;32.20;19.58;;;;;;;;;;2069312;28;20029;-76
2023/12/07 00:39:33;;;;;;;33.88;20.08;;;;;;;;;;2081176;28;20626;-76
2023/12/07 00:40:54;;;;;;;43.00;23.17;;;;;;;;;;2076069;28;20029;-75
2023/12/07 00:42:15;;;;;;;32.65;20.73;;;;;;;;;;2071852;28;20320;-75
2023/12/07 00:43:35;;;;;;;35.45;20.55;;;;;;;;;;2081912;28;20032;-76
2023/12/07 00:44:56;;;;;;;39.65;23.85;;;;;;;;;;2074722;28;20095;-76
2023/12/07 00:46:17;;;;;;;33.22;21.33;;;;;;;;;;2075847;28;20037;-75
2023/12/07 00:47:39;;;;;;;38.35;20.90;;;;;;;;;;2081293;28;20099;-76
2023/12/07 00:49:00;;;;;;;36.03;20.48;;;;;;;;;;2075271;28;20250;-76
2023/12/07 00:50:21;;;;;;;35.58;21.10;;;;;;;;;;2079752;28;20067;-75
2023/12/07 00:51:42;;;;;;;32.80;20.92;;;;;;;;;;2078474;28;20461;-75
2023/12/07 00:53:03;;;;;;;33.92;20.85;;;;;;;;;;2081329;28;20075;-76
2023/12/07 00:54:24;;;;;;;33.72;20.48;;;;;;;;;;2087596;28;20025;-76
2023/12/07 00:55:45;;;;;;;37.85;20.35;;;;;;;;;;2080296;28;20030;-76
2023/12/07 00:57:06;;;;;;;30.25;20.17;;;;;;;;;;2077349;28;20034;-76
2023/12/07 00:58:27;;;;;;;42.90;23.45;;;;;;;;;;2083586;28;20022;-76
2023/12/07 00:59:48;;;;;;;34.40;22.55;;;;;;;;;;2088926;28;20029;-76
2023/12/07 01:01:08;;;;;;;33.72;22.42;;;;;;;;;;2089033;28;20033;-75
2023/12/07 01:02:29;;;;;;;38.17;22.65;;;;;;;;;;2081352;28;20076;-76
2023/12/07 01:03:50;;;;;;;38.25;22.05;;;;;;;;;;2079284;28;20091;-76
2023/12/07 01:05:11;;;;;;;41.42;21.17;;;;;;;;;;2079479;28;20040;-76
2023/12/07 01:06:32;;;;;;;41.13;22.92;;;;;;;;;;2077834;28;20079;-76
2023/12/07 01:07:53;;;;;;;43.97;21.83;;;;;;;;;;2083987;28;20045;-76
2023/12/07 01:09:14;;;;;;;40.03;22.58;;;;;;;;;;2079787;28;20025;-76
2023/12/07 01:10:35;;;;;;;38.90;21.50;;;;;;;;;;2084933;28;20033;-76
2023/12/07 01:11:57;;;;;;;36.92;21.05;;;;;;;;;;2084047;28;20026;-76
2023/12/07 01:13:18;;;;;;;44.58;23.70;;;;;;;;;;2083279;28;20048;-77
2023/12/07 01:14:39;;;;;;;40.28;21.95;;;;;;;;;;2081313;28;20543;-76
2023/12/07 01:16:00;;;;;;;37.20;20.48;;;;;;;;;;2079143;28;20029;-76
2023/12/07 01:17:21;;;;;;;37.05;21.45;;;;;;;;;;2078970;28;20037;-77
2023/12/07 01:18:42;;;;;;;40.45;22.15;;;;;;;;;;2077071;28;20030;-76
2023/12/07 01:20:05;;;;;;;39.00;21.92;;;;;;;;;;2079655;28;20068;-76
2023/12/07 01:21:26;;;;;;;37.83;21.80;;;;;;;;;;2085081;28;23696;-76
2023/12/07 01:22:47;;;;;;;36.50;22.05;;;;;;;;;;2081017;28;20045;-75
2023/12/07 01:24:08;;;;;;;35.25;20.70;;;;;;;;;;2086090;28;20392;-76
2023/12/07 01:25:29;;;;;;;36.45;22.23;;;;;;;;;;2073436;28;20132;-75
2023/12/07 01:26:50;;;;;;;42.22;22.65;;;;;;;;;;2070728;28;20140;-76
2023/12/07 01:28:10;;;;;;;38.35;21.98;;;;;;;;;;2080140;28;20038;-76
2023/12/07 01:29:31;;;;;;;34.47;22.27;;;;;;;;;;2074567;28;20045;-76
2023/12/07 01:30:52;;;;;;;32.10;20.50;;;;;;;;;;2077751;28;20080;-76
2023/12/07 01:32:14;;;;;;;33.58;22.17;;;;;;;;;;2072761;28;20079;-76
2023/12/07 01:33:35;;;;;;;38.00;20.33;;;;;;;;;;2081630;28;20021;-75
2023/12/07 01:34:56;;;;;;;43.22;23.05;;;;;;;;;;2075531;28;21001;-76
2023/12/07 01:36:16;;;;;;;38.60;22.13;;;;;;;;;;2072764;28;20087;-76
2023/12/07 01:37:37;;;;;;;36.00;21.35;;;;;;;;;;2080326;28;22103;-76
2023/12/07 01:38:58;;;;;;;53.80;23.35;;;;;;;;;;2084528;28;20063;-75
2023/12/07 01:40:19;;;;;;;54.92;23.58;;;;;;;;;;2075547;28;20120;-76
2023/12/07 01:41:40;;;;;;;52.40;22.67;;;;;;;;;;2082745;28;20126;-75
2023/12/07 01:43:01;;;;;;;39.25;22.45;;;;;;;;;;2082645;28;20056;-77
2023/12/07 01:44:22;;;;;;;40.88;22.63;;;;;;;;;;2083827;28;20063;-76
2023/12/07 01:45:43;;;;;;;36.53;23.17;;;;;;;;;;2084105;28;20037;-76
2023/12/07 01:47:04;;;;;;;43.40;22.17;;;;;;;;;;2081962;28;21123;-76
2023/12/07 01:48:28;;;;;;;37.47;19.25;;;;;;;;;;2085313;28;20095;-76
2023/12/07 01:49:49;;;;;;;44.15;21.45;;;;;;;;;;2073886;28;20033;-76
2023/12/07 01:51:11;;;;;;;52.08;21.45;;;;;;;;;;2074148;28;20042;-76
2023/12/07 01:52:32;;;;;;;35.85;22.00;;;;;;;;;;2072408;28;20034;-75
2023/12/07 01:53:53;;;;;;;36.97;21.65;;;;;;;;;;2073259;28;20030;-76
2023/12/07 01:55:15;;;;;;;37.97;19.40;;;;;;;;;;2085179;28;20033;-76
2023/12/07 01:56:36;;;;;;;60.87;20.43;;;;;;;;;;2085512;28;20029;-76
2023/12/07 01:57:57;;;;;;;32.15;20.52;;;;;;;;;;2073761;28;20041;-76
2023/12/07 01:59:18;;;;;;;32.58;18.90;;;;;;;;;;2077213;28;20072;-76
2023/12/07 02:00:39;;;;;;;32.45;21.15;;;;;;;;;;2082118;28;20078;-76
2023/12/07 02:02:00;;;;;;;43.30;20.08;;;;;;;;;;2084562;28;20044;-75
2023/12/07 02:03:21;;;;;;;44.58;20.50;;;;;;;;;;2085195;28;20041;-76
2023/12/07 02:04:42;;;;;;;41.00;19.15;;;;;;;;;;2080218;28;20029;-76
2023/12/07 02:06:03;;;;;;;40.70;19.02;;;;;;;;;;2083555;28;20041;-76
2023/12/07 02:07:24;;;;;;;44.60;20.80;;;;;;;;;;2083568;28;20040;-76
2023/12/07 02:08:45;;;;;;;34.38;21.52;;;;;;;;;;2083596;28;20033;-76
2023/12/07 02:10:06;;;;;;;44.75;21.45;;;;;;;;;;2087171;28;20036;-76
2023/12/07 02:11:27;;;;;;;36.53;19.52;;;;;;;;;;2079672;28;20034;-77
2023/12/07 02:12:48;;;;;;;51.65;21.70;;;;;;;;;;2078245;28;20390;-76
2023/12/07 02:14:09;;;;;;;51.88;21.10;;;;;;;;;;2084211;28;20033;-76
2023/12/07 02:15:30;;;;;;;40.15;20.00;;;;;;;;;;2085365;28;20476;-76
2023/12/07 02:16:55;;;;;;;36.35;21.20;;;;;;;;;;2077087;28;20128;-76
2023/12/07 02:18:23;;;;;;;33.90;20.38;;;;;;;;;;2082842;28;20037;-77
2023/12/07 02:19:50;;;;;;;44.80;21.67;;;;;;;;;;2083364;28;20106;-76
2023/12/07 02:21:34;;;;;;;37.72;20.00;;;;;;;;;;2085874;28;20094;-76
2023/12/07 02:22:55;;;;;;;62.35;20.85;;;;;;;;;;2086163;28;20041;-76
2023/12/07 02:24:20;;;;;;;40.45;22.20;;;;;;;;;;2075664;28;20460;-75
2023/12/07 02:25:45;;;;;;;49.90;21.70;;;;;;;;;;2082602;28;20106;-76
2023/12/07 02:27:06;;;;;;;41.53;19.85;;;;;;;;;;2078105;28;20085;-76
2023/12/07 02:28:27;;;;;;;58.97;21.77;;;;;;;;;;2072766;28;20060;-75
2023/12/07 02:29:48;;;;;;;33.08;22.48;;;;;;;;;;2081203;28;20049;-75
2023/12/07 02:31:09;;;;;;;35.03;21.63;;;;;;;;;;2073563;28;20120;-75
2023/12/07 02:32:30;;;;;;;36.00;20.63;;;;;;;;;;2081812;28;20444;-75
2023/12/07 02:33:51;;;;;;;39.58;22.95;;;;;;;;;;2082713;28;20033;-75
2023/12/07 02:35:15;;;;;;;39.50;21.17;;;;;;;;;;2076051;28;20335;-75
2023/12/07 02:36:38;;;;;;;37.80;23.98;;;;;;;;;;2072267;28;20017;-75
2023/12/07 02:37:59;;;;;;;61.05;22.40;;;;;;;;;;2071262;28;20114;-75
2023/12/07 02:39:20;;;;;;;44.70;23.08;;;;;;;;;;2081708;28;20083;-75
2023/12/07 02:40:42;;;;;;;44.60;21.15;;;;;;;;;;2077115;28;20124;-75
2023/12/07 02:42:04;;;;;;;38.08;21.58;;;;;;;;;;2076253;28;20103;-76
2023/12/07 02:43:25;;;;;;;42.90;21.50;;;;;;;;;;2081542;28;20032;-75
2023/12/07 02:44:46;;;;;;;41.22;22.05;;;;;;;;;;2085294;28;20037;-76
2023/12/07 02:46:07;;;;;;;41.80;23.35;;;;;;;;;;2075100;28;20038;-76
2023/12/07 02:47:28;;;;;;;46.40;23.48;;;;;;;;;;2076099;28;20053;-76
2023/12/07 02:48:49;;;;;;;70.95;24.00;;;;;;;;;;2081391;28;20120;-75
2023/12/07 02:50:10;;;;;;;66.50;23.33;;;;;;;;;;2074282;28;20513;-76
2023/12/07 02:51:30;;;;;;;80.60;24.40;;;;;;;;;;2082868;28;20053;-75
2023/12/07 02:52:51;;;;;;;71.32;23.92;;;;;;;;;;2076307;28;20088;-76
2023/12/07 02:54:12;;;;;;;58.13;22.55;;;;;;;;;;2082885;28;20033;-75
2023/12/07 02:55:33;;;;;;;53.75;23.00;;;;;;;;;;2075593;28;20108;-75
2023/12/07 02:56:54;;;;;;;62.53;22.35;;;;;;;;;;2072154;28;20080;-75
2023/12/07 02:58:15;;;;;;;41.22;20.42;;;;;;;;;;2082727;28;20041;-75
2023/12/07 02:59:36;;;;;;;55.17;21.63;;;;;;;;;;2084718;28;20037;-75
2023/12/07 03:00:57;;;;;;;60.30;23.90;;;;;;;;;;2083497;28;20029;-75
2023/12/07 03:02:18;;;;;;;46.65;22.48;;;;;;;;;;2085356;28;20098;-74
2023/12/07 03:03:40;;;;;;;51.97;21.00;;;;;;;;;;2082748;28;20041;-75
2023/12/07 03:05:01;;;;;;;50.50;22.02;;;;;;;;;;2074473;28;20513;-75
2023/12/07 03:06:22;;;;;;;72.72;23.70;;;;;;;;;;2081767;28;20396;-75
2023/12/07 03:07:43;;;;;;;45.88;21.23;;;;;;;;;;2076002;28;20049;-75
2023/12/07 03:09:04;;;;;;;47.55;21.80;;;;;;;;;;2074783;28;20037;-75
2023/12/07 03:10:25;;;;;;;56.28;21.80;;;;;;;;;;2081256;28;20178;-76
2023/12/07 03:11:46;;;;;;;52.03;22.98;;;;;;;;;;2083519;28;21325;-75
2023/12/07 03:13:07;;;;;;;60.00;22.83;;;;;;;;;;2083305;28;20032;-75
2023/12/07 03:14:28;;;;;;;71.13;25.75;;;;;;;;;;2084574;28;20029;-75
2023/12/07 03:15:49;;;;;;;69.60;24.17;;;;;;;;;;2083170;28;20045;-75
2023/12/07 03:17:10;;;;;;;69.38;23.77;;;;;;;;;;2076887;28;20075;-75
2023/12/07 03:18:31;;;;;;;85.68;25.40;;;;;;;;;;2082158;28;21437;-75
2023/12/07 03:19:51;;;;;;;106.90;27.45;;;;;;;;;;2083237;28;20489;-75
2023/12/07 03:21:12;;;;;;;84.18;24.75;;;;;;;;;;2083301;28;20041;-75
2023/12/07 03:22:34;;;;;;;88.60;27.60;;;;;;;;;;2076381;28;20468;-74
2023/12/07 03:23:55;;;;;;;85.13;23.87;;;;;;;;;;2072158;28;20030;-75
2023/12/07 03:25:16;;;;;;;85.50;28.33;;;;;;;;;;2074684;28;20514;-75
2023/12/07 03:26:37;;;;;;;100.10;27.77;;;;;;;;;;2086516;28;20044;-75
2023/12/07 03:27:58;;;;;;;132.45;28.60;;;;;;;;;;2089173;28;20041;-76
2023/12/07 03:29:19;;;;;;;110.50;25.83;;;;;;;;;;2089217;28;20036;-76
2023/12/07 03:30:39;;;;;;;131.38;29.48;;;;;;;;;;2080272;28;20041;-76
2023/12/07 03:32:00;;;;;;;133.55;30.15;;;;;;;;;;2081224;28;20472;-76
2023/12/07 03:33:21;;;;;;;101.55;28.10;;;;;;;;;;2081715;28;20037;-76
2023/12/07 03:34:42;;;;;;;109.32;26.38;;;;;;;;;;2078533;28;20022;-76
2023/12/07 03:36:03;;;;;;;142.20;36.00;;;;;;;;;;2077950;28;20438;-78
2023/12/07 03:37:24;;;;;;;95.78;30.77;;;;;;;;;;2085888;28;20029;-77
2023/12/07 03:38:45;;;;;;;112.25;27.50;;;;;;;;;;2090145;28;20057;-77
2023/12/07 03:40:06;;;;;;;99.07;27.10;;;;;;;;;;2089295;28;20029;-75
2023/12/07 03:41:27;;;;;;;157.73;31.00;;;;;;;;;;2082152;28;20033;-77
2023/12/07 03:42:48;;;;;;;87.68;24.83;;;;;;;;;;2078720;28;20041;-76
2023/12/07 03:44:09;;;;;;;85.68;27.10;;;;;;;;;;2089700;28;20032;-76
2023/12/07 03:45:30;;;;;;;118.93;32.97;;;;;;;;;;2084892;28;20037;-77
2023/12/07 03:46:51;;;;;;;150.65;31.77;;;;;;;;;;2090435;28;20501;-77
2023/12/07 03:48:12;;;;;;;101.13;27.27;;;;;;;;;;2089179;28;20049;-77
2023/12/07 03:49:33;;;;;;;101.35;27.08;;;;;;;;;;2089313;28;20025;-77
2023/12/07 03:50:54;;;;;;;86.65;24.83;;;;;;;;;;2080384;28;20420;-76
2023/12/07 03:52:15;;;;;;;120.50;28.88;;;;;;;;;;2079329;28;20037;-77
2023/12/07 03:53:35;;;;;;;119.70;27.52;;;;;;;;;;2080126;28;20044;-77
2023/12/07 03:54:56;;;;;;;83.57;26.08;;;;;;;;;;2078606;28;20095;-77
2023/12/07 03:56:27;;;;;;;74.43;24.65;;;;;;;;;;2082332;28;20082;-77
2023/12/07 03:57:48;;;;;;;78.25;27.70;;;;;;;;;;2084488;28;20029;-76
2023/12/07 03:59:09;;;;;;;101.45;26.27;;;;;;;;;;2076150;28;20060;-77
2023/12/07 04:00:32;;;;;;;126.35;30.90;;;;;;;;;;2080412;28;20460;-76
2023/12/07 04:01:53;;;;;;;105.80;27.10;;;;;;;;;;2082749;28;20467;-74
2023/12/07 04:03:13;;;;;;;109.60;24.75;;;;;;;;;;2084332;28;20033;-74
2023/12/07 04:04:34;;;;;;;67.40;23.58;;;;;;;;;;2074041;28;20026;-76
2023/12/07 04:05:55;;;;;;;89.72;26.50;;;;;;;;;;2083388;28;20033;-74
2023/12/07 04:07:16;;;;;;;84.90;27.67;;;;;;;;;;2083524;28;20032;-76
2023/12/07 04:08:37;;;;;;;89.63;27.17;;;;;;;;;;2075517;28;20068;-77
2023/12/07 04:10:09;;;;;;;109.05;25.35;;;;;;;;;;2070232;28;20083;-77
2023/12/07 04:11:35;;;;;;;79.40;24.73;;;;;;;;;;2084093;28;20098;-77
2023/12/07 04:12:56;;;;;;;52.22;23.33;;;;;;;;;;2084107;28;20532;-76
2023/12/07 04:14:17;;;;;;;63.53;23.27;;;;;;;;;;2075701;28;20381;-75
2023/12/07 04:15:38;;;;;;;74.90;23.92;;;;;;;;;;2072682;28;20103;-75
2023/12/07 04:16:59;;;;;;;108.05;24.02;;;;;;;;;;2071016;28;20554;-75
2023/12/07 04:18:20;;;;;;;68.00;24.38;;;;;;;;;;2079690;28;20766;-75
2023/12/07 04:19:41;;;;;;;92.28;28.35;;;;;;;;;;2081989;28;20040;-75
2023/12/07 04:21:02;;;;;;;78.60;26.75;;;;;;;;;;2073893;28;20083;-75
2023/12/07 04:22:23;;;;;;;82.63;26.88;;;;;;;;;;2073632;28;20993;-75
2023/12/07 04:23:44;;;;;;;78.85;22.95;;;;;;;;;;2073177;28;20041;-75
2023/12/07 04:25:05;;;;;;;90.00;24.92;;;;;;;;;;2073945;28;20045;-76
2023/12/07 04:26:27;;;;;;;64.53;21.13;;;;;;;;;;2080045;28;20029;-76
2023/12/07 04:27:48;;;;;;;69.80;27.40;;;;;;;;;;2086307;28;20033;-75
2023/12/07 04:29:08;;;;;;;77.32;24.10;;;;;;;;;;2087894;28;20037;-75
2023/12/07 04:30:29;;;;;;;93.03;26.10;;;;;;;;;;2076579;28;20714;-76
2023/12/07 04:31:50;;;;;;;66.43;24.40;;;;;;;;;;2079698;28;20041;-75
2023/12/07 04:33:11;;;;;;;72.65;29.00;;;;;;;;;;2083808;28;20037;-75
2023/12/07 04:34:32;;;;;;;55.30;22.88;;;;;;;;;;2074634;28;20056;-76
2023/12/07 04:35:53;;;;;;;64.10;21.10;;;;;;;;;;2073439;28;20038;-76
2023/12/07 04:37:14;;;;;;;91.40;28.17;;;;;;;;;;2072514;28;20034;-75
2023/12/07 04:38:35;;;;;;;90.47;27.08;;;;;;;;;;2073918;28;20041;-76
2023/12/07 04:39:56;;;;;;;66.13;24.70;;;;;;;;;;2081459;28;20029;-76
2023/12/07 04:41:17;;;;;;;79.28;27.13;;;;;;;;;;2077636;28;20466;-76
2023/12/07 04:42:38;;;;;;;111.15;29.77;;;;;;;;;;2074297;28;20038;-76
2023/12/07 04:43:59;;;;;;;105.57;28.65;;;;;;;;;;2073839;28;20651;-75
2023/12/07 04:45:20;;;;;;;87.97;24.92;;;;;;;;;;2081393;28;20089;-76
2023/12/07 04:46:41;;;;;;;83.55;28.50;;;;;;;;;;2075120;28;20060;-76
2023/12/07 04:48:03;;;;;;;95.40;27.33;;;;;;;;;;2070678;28;20638;-75
2023/12/07 04:49:24;;;;;;;79.38;25.50;;;;;;;;;;2078804;28;20079;-76
2023/12/07 04:50:45;;;;;;;89.15;29.02;;;;;;;;;;2074443;28;20037;-75
2023/12/07 04:52:07;;;;;;;118.30;25.30;;;;;;;;;;2076830;28;20026;-76
2023/12/07 04:53:27;;;;;;;140.60;33.17;;;;;;;;;;2079640;28;20088;-75
2023/12/07 04:54:49;;;;;;;124.30;30.63;;;;;;;;;;2086607;28;20508;-76
2023/12/07 04:56:10;;;;;;;73.77;25.37;;;;;;;;;;2074028;28;20398;-76
2023/12/07 04:57:31;;;;;;;80.68;26.13;;;;;;;;;;2086248;28;20362;-76
2023/12/07 04:58:51;;;;;;;100.55;27.38;;;;;;;;;;2086812;28;20033;-76
2023/12/07 05:00:13;;;;;;;86.93;29.00;;;;;;;;;;2076292;28;20029;-75
2023/12/07 05:01:37;;;;;;;74.70;26.92;;;;;;;;;;2077448;28;20032;-76
2023/12/07 05:02:58;;;;;;;69.07;23.92;;;;;;;;;;2084944;28;20108;-76
2023/12/07 05:04:19;;;;;;;93.50;25.70;;;;;;;;;;2089177;28;20040;-76
2023/12/07 05:05:40;;;;;;;109.97;28.70;;;;;;;;;;2087756;28;20493;-76
2023/12/07 05:07:03;;;;;;;104.60;32.30;;;;;;;;;;2088685;28;20041;-76
2023/12/07 05:08:24;;;;;;;82.00;29.17;;;;;;;;;;2079426;28;20092;-76
2023/12/07 05:09:45;;;;;;;68.82;24.23;;;;;;;;;;2084077;28;20037;-76
2023/12/07 05:11:06;;;;;;;119.00;26.23;;;;;;;;;;2088280;28;20028;-76
2023/12/07 05:12:27;;;;;;;120.18;30.67;;;;;;;;;;2080273;28;20443;-76
2023/12/07 05:13:48;;;;;;;78.85;24.05;;;;;;;;;;2080437;28;20029;-76
2023/12/07 05:15:09;;;;;;;94.28;28.63;;;;;;;;;;2078449;28;20025;-76
2023/12/07 05:16:30;;;;;;;127.05;30.02;;;;;;;;;;2079283;28;20026;-76
2023/12/07 05:17:51;;;;;;;79.65;23.48;;;;;;;;;;2076327;28;20033;-76
2023/12/07 05:19:12;;;;;;;124.50;26.48;;;;;;;;;;2071306;28;20453;-76
2023/12/07 05:20:34;;;;;;;117.35;24.90;;;;;;;;;;2078674;28;20045;-76
2023/12/07 05:21:54;;;;;;;93.28;24.77;;;;;;;;;;2086154;28;20025;-76
2023/12/07 05:23:15;;;;;;;91.05;22.77;;;;;;;;;;2089596;28;20420;-75
2023/12/07 05:24:36;;;;;;;120.30;27.58;;;;;;;;;;2083291;28;20036;-76
2023/12/07 05:25:57;;;;;;;111.53;28.35;;;;;;;;;;2075485;28;20567;-76
2023/12/07 05:27:18;;;;;;;104.60;29.63;;;;;;;;;;2074289;28;20122;-76
2023/12/07 05:28:39;;;;;;;107.85;25.45;;;;;;;;;;2079326;28;20041;-75
2023/12/07 05:30:01;;;;;;;89.57;22.90;;;;;;;;;;2074717;28;20520;-75
2023/12/07 05:31:22;;;;;;;101.18;25.77;;;;;;;;;;2071442;28;20044;-75
2023/12/07 05:32:43;;;;;;;75.68;22.70;;;;;;;;;;2073653;28;20091;-76
2023/12/07 05:34:03;;;;;;;101.15;24.83;;;;;;;;;;2080363;28;20091;-75
2023/12/07 05:35:24;;;;;;;66.28;22.75;;;;;;;;;;2074558;28;20045;-76
2023/12/07 05:36:46;;;;;;;85.90;27.10;;;;;;;;;;2077814;28;20029;-75
2023/12/07 05:38:07;;;;;;;90.13;25.35;;;;;;;;;;2075868;28;20052;-75
2023/12/07 05:39:28;;;;;;;98.57;26.48;;;;;;;;;;2072142;28;20858;-75
2023/12/07 05:40:48;;;;;;;104.65;24.00;;;;;;;;;;2082640;28;20037;-76
2023/12/07 05:42:09;;;;;;;113.47;25.48;;;;;;;;;;2087094;28;20434;-75
2023/12/07 05:43:31;;;;;;;92.55;23.05;;;;;;;;;;2084670;28;20120;-76
2023/12/07 05:44:51;;;;;;;83.35;22.95;;;;;;;;;;2082745;28;20029;-76
2023/12/07 05:46:12;;;;;;;108.53;26.55;;;;;;;;;;2074969;28;20464;-76
2023/12/07 05:47:34;;;;;;;125.63;27.00;;;;;;;;;;2080014;28;20088;-76
2023/12/07 05:48:55;;;;;;;154.32;25.65;;;;;;;;;;2073549;28;20033;-76
2023/12/07 05:50:16;;;;;;;83.68;24.95;;;;;;;;;;2079893;28;20037;-75
2023/12/07 05:51:37;;;;;;;110.85;23.17;;;;;;;;;;2073898;28;20037;-75
2023/12/07 05:52:59;;;;;;;78.47;20.88;;;;;;;;;;2073431;28;20194;-76
2023/12/07 05:54:23;;;;;;;131.15;23.00;;;;;;;;;;2082546;28;20114;-76
2023/12/07 05:55:44;;;;;;;121.30;22.42;;;;;;;;;;2082727;28;20033;-76
2023/12/07 05:57:05;;;;;;;92.68;21.70;;;;;;;;;;2082750;28;20029;-75
2023/12/07 05:58:26;;;;;;;146.40;27.53;;;;;;;;;;2082019;28;20111;-75
2023/12/07 05:59:47;;;;;;;78.60;19.98;;;;;;;;;;2074584;28;20068;-76
2023/12/07 06:01:08;;;;;;;82.93;19.48;;;;;;;;;;2079470;28;20037;-76
2023/12/07 06:02:29;;;;;;;121.07;25.02;;;;;;;;;;2078894;28;20413;-75
2023/12/07 06:03:50;;;;;;;94.20;18.50;;;;;;;;;;2084641;28;20029;-75
2023/12/07 06:05:11;;;;;;;98.85;23.90;;;;;;;;;;2080707;28;20029;-76
2023/12/07 06:06:31;;;;;;;104.68;20.25;;;;;;;;;;2074669;28;20044;-75
2023/12/07 06:07:54;;;;;;;84.30;20.15;;;;;;;;;;2079519;28;20063;-76
2023/12/07 06:09:14;;;;;;;130.93;23.35;;;;;;;;;;2085742;28;20106;-75
2023/12/07 06:10:35;;;;;;;66.35;19.40;;;;;;;;;;2076164;28;20034;-75
2023/12/07 06:11:57;;;;;;;120.55;19.92;;;;;;;;;;2078021;28;20057;-76
2023/12/07 06:13:17;;;;;;;146.10;23.52;;;;;;;;;;2074324;28;20030;-75
2023/12/07 06:14:38;;;;;;;75.43;20.27;;;;;;;;;;2077906;28;20497;-75
2023/12/07 06:16:01;;;;;;;100.80;21.23;;;;;;;;;;2082608;28;20111;-75
2023/12/07 06:17:21;;;;;;;;;;;;;;;;;;2079839;28;20041;-75
2023/12/07 06:18:42;;;;;;;83.32;21.77;;;;;;;;;;2080287;28;20004;-75
2023/12/07 06:20:04;;;;;;;80.45;21.63;;;;;;;;;;2073856;28;20033;-77
2023/12/07 06:21:26;;;;;;;68.80;19.23;;;;;;;;;;2071041;28;20031;-75
2023/12/07 06:22:46;;;;;;;;;;;;;;;;;;2073187;28;20037;-77
2023/12/07 06:24:07;;;;;;;93.20;17.65;;;;;;;;;;2066469;28;19911;-76
2023/12/07 06:25:28;;;;;;;76.13;21.73;;;;;;;;;;2064895;28;20030;-76
2023/12/07 06:26:49;;;;;;;125.20;23.10;;;;;;;;;;2065633;28;20038;-75
2023/12/07 06:28:10;;;;;;;133.07;25.00;;;;;;;;;;2067294;28;20042;-76
2023/12/07 06:29:31;;;;;;;69.30;17.83;;;;;;;;;;2064061;28;20042;-75
2023/12/07 06:30:52;;;;;;;110.80;24.20;;;;;;;;;;2070803;28;20066;-76
2023/12/07 06:32:14;;;;;;;115.55;19.70;;;;;;;;;;2069892;28;20496;-73
2023/12/07 06:33:35;;;;;;;165.18;21.10;;;;;;;;;;2072043;28;20030;-75
2023/12/07 06:34:56;;;;;;;105.78;20.08;;;;;;;;;;2073333;28;20026;-76
2023/12/07 06:36:20;;;;;;;82.63;18.58;;;;;;;;;;2071105;28;20101;-75
2023/12/07 06:37:41;;;;;;;58.63;18.75;;;;;;;;;;2072336;28;20034;-75
2023/12/07 06:39:05;;;;;;;82.35;18.45;;;;;;;;;;2063027;28;20042;-75
2023/12/07 06:40:26;;;;;;;85.63;20.17;;;;;;;;;;2068753;28;20018;-76
2023/12/07 06:41:47;;;;;;;86.45;17.90;;;;;;;;;;2072518;28;20041;-75
2023/12/07 06:43:08;;;;;;;94.40;18.15;;;;;;;;;;2064741;28;20046;-75
2023/12/07 06:44:29;;;;;;;73.70;18.95;;;;;;;;;;2066284;28;20037;-75
2023/12/07 06:45:50;;;;;;;137.43;17.92;;;;;;;;;;2070918;28;20044;-75
2023/12/07 06:47:11;;;;;;;82.93;17.95;;;;;;;;;;2067957;28;20494;-75
2023/12/07 06:48:32;;;;;;;59.55;17.30;;;;;;;;;;2072142;28;20104;-75
2023/12/07 06:49:53;;;;;;;85.53;18.92;;;;;;;;;;2073577;28;20061;-75
2023/12/07 06:51:14;;;;;;;91.78;18.15;;;;;;;;;;2074246;28;20415;-75
2023/12/07 06:52:35;;;;;;;95.32;20.00;;;;;;;;;;2066556;28;20034;-75
2023/12/07 06:53:56;;;;;;;83.05;18.45;;;;;;;;;;2066717;28;20470;-75
2023/12/07 06:55:17;;;;;;;91.10;18.50;;;;;;;;;;2068308;28;20030;-75
2023/12/07 06:56:38;;;;;;;51.10;15.75;;;;;;;;;;2072272;28;20516;-75
2023/12/07 06:57:59;;;;;;;118.88;18.60;;;;;;;;;;2066307;28;20084;-75
2023/12/07 06:59:20;;;;;;;69.45;17.88;;;;;;;;;;2070069;28;20073;-75
2023/12/07 07:00:41;;;;;;;76.65;16.95;;;;;;;;;;2065097;28;20038;-75
2023/12/07 07:02:02;;;;;;;102.90;20.40;;;;;;;;;;2070391;28;20049;-75
2023/12/07 07:03:24;;;;;;;100.45;18.60;;;;;;;;;;2068659;28;20407;-76
2023/12/07 07:04:45;;;;;;;;;;;;;;;;;;2070373;28;20037;-76
2023/12/07 07:06:06;;;;;;;114.10;20.63;;;;;;;;;;2071502;28;19909;-75
2023/12/07 07:07:29;;;;;;;128.40;18.88;;;;;;;;;;2074400;28;20402;-75
2023/12/07 07:08:50;;;;;;;98.97;17.17;;;;;;;;;;2080420;28;20041;-75
2023/12/07 07:10:12;;;;;;;58.63;15.80;;;;;;;;;;2065092;28;20402;-75
2023/12/07 07:11:34;;;;;;;48.20;17.05;;;;;;;;;;2069746;28;20038;-76
2023/12/07 07:12:54;;;;;;;67.20;17.65;;;;;;;;;;2080668;28;20524;-75
2023/12/07 07:14:15;;;;;;;85.95;19.95;;;;;;;;;;2065178;28;20038;-75
2023/12/07 07:15:36;;;;;;;78.03;18.30;;;;;;;;;;2064958;28;20030;-75
2023/12/07 07:16:57;;;;;;;60.72;16.55;;;;;;;;;;2065890;28;20030;-75
2023/12/07 07:18:18;;;;;;;96.28;18.83;;;;;;;;;;2064978;28;20110;-75
2023/12/07 07:19:39;;;;;;;61.03;16.73;;;;;;;;;;2073176;28;20038;-75
2023/12/07 07:21:00;;;;;;;47.85;15.10;;;;;;;;;;2072565;28;20045;-76
2023/12/07 07:22:21;;;;;;;73.35;17.77;;;;;;;;;;2072472;28;20485;-75
2023/12/07 07:23:42;;;;;;;112.90;19.05;;;;;;;;;;2065234;28;20042;-75
2023/12/07 07:25:03;;;;;;;39.88;16.33;;;;;;;;;;2070285;28;20030;-76
2023/12/07 07:26:25;;;;;;;76.78;20.42;;;;;;;;;;2073530;28;20038;-75
2023/12/07 07:27:45;;;;;;;85.43;18.30;;;;;;;;;;2073730;28;20030;-75
2023/12/07 07:29:06;;;;;;;105.82;21.67;;;;;;;;;;2071662;28;20045;-75
2023/12/07 07:30:27;;;;;;;70.03;18.70;;;;;;;;;;2072320;28;20030;-76
2023/12/07 07:31:48;;;;;;;65.50;18.17;;;;;;;;;;2073369;28;20029;-75
2023/12/07 07:33:09;;;;;;;48.17;15.07;;;;;;;;;;2073710;28;20030;-75
2023/12/07 07:34:30;;;;;;;68.18;16.00;;;;;;;;;;2073887;28;20351;-76
2023/12/07 07:35:51;;;;;;;58.38;16.95;;;;;;;;;;2072220;28;20033;-75
2023/12/07 07:37:12;;;;;;;95.72;18.90;;;;;;;;;;2078225;28;20035;-75
2023/12/07 07:38:33;;;;;;;97.20;19.88;;;;;;;;;;2073109;28;20405;-75
2023/12/07 07:39:53;;;;;;;85.30;20.23;;;;;;;;;;2078650;28;20034;-75
2023/12/07 07:41:14;;;;;;;103.50;19.33;;;;;;;;;;2073511;28;20029;-75
2023/12/07 07:42:35;;;;;;;102.07;20.15;;;;;;;;;;2072441;28;20513;-77
2023/12/07 07:43:56;;;;;;;75.55;16.67;;;;;;;;;;2070701;28;20045;-76
2023/12/07 07:45:17;;;;;;;111.10;21.75;;;;;;;;;;2075422;28;20030;-75
2023/12/07 07:46:40;;;;;;;73.82;16.98;;;;;;;;;;2082432;28;20052;-76
2023/12/07 07:48:01;;;;;;;103.00;18.48;;;;;;;;;;2081384;28;20045;-77
2023/12/07 07:49:22;;;;;;;65.90;17.05;;;;;;;;;;2081280;28;20197;-74
2023/12/07 07:50:42;;;;;;;88.72;19.63;;;;;;;;;;2081940;28;20101;-75
2023/12/07 07:52:05;;;;;;;76.68;17.20;;;;;;;;;;2080453;28;20124;-76